createdAt,value
2023-02-15T00:00:00.964Z,6.09
2023-02-15T00:00:33.880Z,6.18
2023-02-15T00:01:07.506Z,6.14
2023-02-15T00:01:40.279Z,6.07
2023-02-15T00:02:12.789Z,6.11
2023-02-15T00:02:45.342Z,6.13
2023-02-15T00:03:36.776Z,6.03
2023-02-15T00:04:10.268Z,6.04
2023-02-15T00:05:01.502Z,6.03
2023-02-15T00:05:34.314Z,6.10
2023-02-15T00:06:07.039Z,6.14
2023-02-15T00:06:39.874Z,6.25
2023-02-15T00:07:14.191Z,6.20
2023-02-15T00:07:46.726Z,6.22
2023-02-15T00:08:19.304Z,6.26
2023-02-15T00:08:52.053Z,6.16
2023-02-15T00:09:24.588Z,6.02
2023-02-15T00:09:57.203Z,5.98
2023-02-15T00:10:29.814Z,6.06
2023-02-15T00:11:09.166Z,6.04
2023-02-15T00:12:02.657Z,6.06
2023-02-15T00:12:35.458Z,6.05
2023-02-15T00:13:28.183Z,6.02
2023-02-15T00:14:22.897Z,5.88
2023-02-15T00:14:56.510Z,5.85
2023-02-15T00:15:52.754Z,5.91
2023-02-15T00:16:25.516Z,5.86
2023-02-15T00:17:00.803Z,5.88
2023-02-15T00:17:52.265Z,5.91
2023-02-15T00:18:25.036Z,5.90
2023-02-15T00:18:58.508Z,5.81
2023-02-15T00:19:31.277Z,5.88
2023-02-15T00:20:04.256Z,5.88
2023-02-15T00:20:55.746Z,5.86
2023-02-15T00:21:30.655Z,5.85
2023-02-15T00:22:03.560Z,5.93
2023-02-15T00:22:36.351Z,5.98
2023-02-15T00:23:28.030Z,6.03
2023-02-15T00:24:00.910Z,6.12
2023-02-15T00:24:33.577Z,6.02
2023-02-15T00:25:25.178Z,6.00
2023-02-15T00:26:11.430Z,5.87
2023-02-15T00:27:02.849Z,5.87
2023-02-15T00:27:53.801Z,5.89
2023-02-15T00:28:45.299Z,5.97
2023-02-15T00:29:18.026Z,5.93
2023-02-15T00:29:52.562Z,5.93
2023-02-15T00:30:43.939Z,5.89
2023-02-15T00:31:17.618Z,6.09
2023-02-15T00:31:50.420Z,6.07
2023-02-15T00:32:23.135Z,6.00
2023-02-15T00:32:55.678Z,5.94
2023-02-15T00:33:28.238Z,5.86
2023-02-15T00:34:08.559Z,5.81
2023-02-15T00:34:41.337Z,5.75
2023-02-15T00:35:13.940Z,5.76
2023-02-15T00:35:46.524Z,5.83
2023-02-15T00:36:19.285Z,6.00
2023-02-15T00:36:52.056Z,6.06
2023-02-15T00:37:24.620Z,6.10
2023-02-15T00:37:57.351Z,6.09
2023-02-15T00:38:30.395Z,6.00
2023-02-15T00:39:05.668Z,5.93
2023-02-15T00:39:38.431Z,5.93
2023-02-15T00:40:11.444Z,5.93
2023-02-15T00:40:43.971Z,5.89
2023-02-15T00:41:16.551Z,5.99
2023-02-15T00:41:49.136Z,5.99
2023-02-15T00:42:21.746Z,5.94
2023-02-15T00:42:54.442Z,5.94
2023-02-15T00:43:27.688Z,5.98
2023-02-15T00:44:00.512Z,5.98
2023-02-15T00:44:33.091Z,6.05
2023-02-15T00:45:05.953Z,5.98
2023-02-15T00:45:38.503Z,6.08
2023-02-15T00:46:11.125Z,6.00
2023-02-15T00:46:44.749Z,6.04
2023-02-15T00:47:17.577Z,6.00
2023-02-15T00:47:50.105Z,5.91
2023-02-15T00:48:22.847Z,5.92
2023-02-15T00:49:14.264Z,5.84
2023-02-15T00:49:46.810Z,5.88
2023-02-15T00:50:19.310Z,5.93
2023-02-15T00:51:18.230Z,6.03
2023-02-15T00:51:50.770Z,6.15
2023-02-15T00:52:23.300Z,6.16
2023-02-15T00:52:56.033Z,6.08
2023-02-15T00:53:28.936Z,6.02
2023-02-15T00:54:01.817Z,6.02
2023-02-15T00:54:35.694Z,5.95
2023-02-15T00:55:08.363Z,6.06
2023-02-15T00:55:41.356Z,6.06
2023-02-15T00:56:13.914Z,6.03
2023-02-15T00:56:46.453Z,6.15
2023-02-15T00:57:19.015Z,6.14
2023-02-15T00:57:51.588Z,6.16
2023-02-15T00:58:42.840Z,6.22
2023-02-15T00:59:15.358Z,6.24
2023-02-15T00:59:48.029Z,6.19
2023-02-15T01:00:20.678Z,6.22
2023-02-15T01:00:53.473Z,6.19
2023-02-15T01:01:26.955Z,6.16
2023-02-15T01:01:59.385Z,6.08
2023-02-15T01:02:31.912Z,6.08
2023-02-15T01:03:04.916Z,6.10
2023-02-15T01:03:37.466Z,6.09
2023-02-15T01:04:10.115Z,6.07
2023-02-15T01:04:42.578Z,6.00
2023-02-15T01:05:15.122Z,6.02
2023-02-15T01:05:47.799Z,6.12
2023-02-15T01:06:20.410Z,6.11
2023-02-15T01:06:52.960Z,6.08
2023-02-15T01:08:13.093Z,6.06
2023-02-15T01:08:46.024Z,5.92
2023-02-15T01:09:18.740Z,5.89
2023-02-15T01:09:51.281Z,5.95
2023-02-15T01:10:23.971Z,5.97
2023-02-15T01:11:46.377Z,6.03
2023-02-15T01:12:18.980Z,5.96
2023-02-15T01:12:52.073Z,5.95
2023-02-15T01:13:24.626Z,6.00
2023-02-15T01:13:57.580Z,6.00
2023-02-15T01:14:30.143Z,5.93
2023-02-15T01:15:02.700Z,5.99
2023-02-15T01:15:36.519Z,6.02
2023-02-15T01:16:09.490Z,6.06
2023-02-15T01:16:41.998Z,6.06
2023-02-15T01:17:14.557Z,6.09
2023-02-15T01:18:30.992Z,6.01
2023-02-15T01:19:03.816Z,5.99
2023-02-15T01:19:54.952Z,5.99
2023-02-15T01:20:28.367Z,5.93
2023-02-15T01:21:01.118Z,5.94
2023-02-15T01:21:52.680Z,6.02
2023-02-15T01:22:25.494Z,6.03
2023-02-15T01:22:58.350Z,6.10
2023-02-15T01:23:11.164Z,6.12
2023-02-15T01:23:43.962Z,6.11
2023-02-15T01:24:16.723Z,6.16
2023-02-15T01:25:08.398Z,6.08
2023-02-15T01:25:40.987Z,5.94
2023-02-15T01:26:32.025Z,5.92
2023-02-15T01:27:04.594Z,5.97
2023-02-15T01:27:37.142Z,5.98
2023-02-15T01:28:09.713Z,5.93
2023-02-15T01:28:42.613Z,5.93
2023-02-15T01:29:15.180Z,5.96
2023-02-15T01:29:48.521Z,6.01
2023-02-15T01:30:50.686Z,6.01
2023-02-15T01:31:23.310Z,6.14
2023-02-15T01:31:56.021Z,6.13
2023-02-15T01:32:28.488Z,6.20
2023-02-15T01:33:20.281Z,6.13
2023-02-15T01:33:52.817Z,5.98
2023-02-15T01:34:25.407Z,5.91
2023-02-15T01:35:17.541Z,5.85
2023-02-15T01:35:50.082Z,5.95
2023-02-15T01:36:22.653Z,6.02
2023-02-15T01:37:14.269Z,6.04
2023-02-15T01:38:05.584Z,6.00
2023-02-15T01:38:57.251Z,5.97
2023-02-15T01:39:29.850Z,5.95
2023-02-15T01:40:03.398Z,5.98
2023-02-15T01:40:54.726Z,6.10
2023-02-15T01:41:28.216Z,5.93
2023-02-15T01:42:00.772Z,5.86
2023-02-15T01:42:33.375Z,5.87
2023-02-15T01:43:11.408Z,5.89
2023-02-15T01:43:49.020Z,6.01
2023-02-15T01:44:54.318Z,6.07
2023-02-15T01:45:30.619Z,6.22
2023-02-15T01:46:03.492Z,6.18
2023-02-15T01:47:02.880Z,5.99
2023-02-15T01:47:38.296Z,5.83
2023-02-15T01:48:30.405Z,5.95
2023-02-15T01:49:04.205Z,5.88
2023-02-15T01:49:36.737Z,5.93
2023-02-15T01:50:30.576Z,6.02
2023-02-15T01:51:52.201Z,6.02
2023-02-15T01:52:24.721Z,5.91
2023-02-15T01:53:25.013Z,5.94
2023-02-15T01:54:20.851Z,5.96
2023-02-15T01:54:53.593Z,6.09
2023-02-15T01:55:28.091Z,6.00
2023-02-15T01:56:24.882Z,5.96
2023-02-15T01:57:00.696Z,5.94
2023-02-15T01:57:33.259Z,5.85
2023-02-15T01:58:30.221Z,5.95
2023-02-15T01:59:04.715Z,6.01
2023-02-15T01:59:39.010Z,5.97
2023-02-15T02:00:11.835Z,5.94
2023-02-15T02:01:05.251Z,5.82
2023-02-15T02:01:37.824Z,5.67
2023-02-15T02:02:10.734Z,5.68
2023-02-15T02:02:43.370Z,5.79
2023-02-15T02:03:15.838Z,5.86
2023-02-15T02:04:03.174Z,5.82
2023-02-15T02:04:56.606Z,5.87
2023-02-15T02:05:47.594Z,5.93
2023-02-15T02:06:20.339Z,5.87
2023-02-15T02:06:53.071Z,5.84
2023-02-15T02:07:28.278Z,5.88
2023-02-15T02:08:00.987Z,5.82
2023-02-15T02:08:51.909Z,5.87
2023-02-15T02:09:43.171Z,5.77
2023-02-15T02:10:18.446Z,5.71
2023-02-15T02:11:13.004Z,5.83
2023-02-15T02:11:47.125Z,5.78
2023-02-15T02:12:19.907Z,5.83
2023-02-15T02:12:55.982Z,5.92
2023-02-15T02:13:28.565Z,5.81
2023-02-15T02:14:01.293Z,5.83
2023-02-15T02:14:34.045Z,5.85
2023-02-15T02:15:07.203Z,5.87
2023-02-15T02:15:49.903Z,5.82
2023-02-15T02:16:33.263Z,5.89
2023-02-15T02:17:08.209Z,5.97
2023-02-15T02:18:11.362Z,5.97
2023-02-15T02:19:25.118Z,6.00
2023-02-15T02:20:16.520Z,6.03
2023-02-15T02:21:04.181Z,5.98
2023-02-15T02:22:05.235Z,5.96
2023-02-15T02:23:06.057Z,5.88
2023-02-15T02:23:41.595Z,5.83
2023-02-15T02:24:37.436Z,5.78
2023-02-15T02:25:13.199Z,5.85
2023-02-15T02:26:33.005Z,5.98
2023-02-15T02:27:25.532Z,6.10
2023-02-15T02:28:15.976Z,5.95
2023-02-15T02:28:48.489Z,5.82
2023-02-15T02:29:49.100Z,5.80
2023-02-15T02:30:27.175Z,5.86
2023-02-15T02:31:26.873Z,5.86
2023-02-15T02:32:14.418Z,5.76
2023-02-15T02:33:40.596Z,5.82
2023-02-15T02:34:30.405Z,5.97
2023-02-15T02:35:17.357Z,6.02
2023-02-15T02:35:33.093Z,5.97
2023-02-15T02:36:41.739Z,6.03
2023-02-15T02:37:23.002Z,5.94
2023-02-15T02:38:39.772Z,5.90
2023-02-15T02:39:50.899Z,5.87
2023-02-15T02:40:39.192Z,5.88
2023-02-15T02:41:20.769Z,5.92
2023-02-15T02:42:11.327Z,5.84
2023-02-15T03:16:12.918Z,5.65
2023-02-15T03:16:47.111Z,5.72
2023-02-15T03:17:22.951Z,5.80
2023-02-15T03:17:59.706Z,5.88
2023-02-15T03:18:35.662Z,5.77
2023-02-15T03:19:12.494Z,5.89
2023-02-15T03:19:45.239Z,5.89
2023-02-15T03:20:36.737Z,5.85
2023-02-15T03:21:09.391Z,5.92
2023-02-15T03:22:10.439Z,5.88
2023-02-15T03:22:54.407Z,5.85
2023-02-15T03:23:27.153Z,5.83
2023-02-15T03:24:01.718Z,5.85
2023-02-15T03:25:05.749Z,5.87
2023-02-15T03:25:42.414Z,5.70
2023-02-15T03:26:14.999Z,5.92
2023-02-15T03:26:48.874Z,5.87
2023-02-15T03:27:27.077Z,5.86
2023-02-15T03:28:22.142Z,5.76
2023-02-15T03:28:55.765Z,5.75
2023-02-15T03:29:18.528Z,5.68
2023-02-15T03:30:49.727Z,5.67
2023-02-15T03:31:22.862Z,5.58
2023-02-15T03:32:00.302Z,5.51
2023-02-15T03:32:33.979Z,5.51
2023-02-15T03:33:33.757Z,5.57
2023-02-15T03:34:08.774Z,5.56
2023-02-15T03:35:07.429Z,5.54
2023-02-15T03:37:34.420Z,5.60
2023-02-15T03:41:11.789Z,5.52
2023-02-15T03:41:55.472Z,5.57
2023-02-15T03:43:13.590Z,5.56
2023-02-15T03:49:50.024Z,5.51
2023-02-15T03:50:42.915Z,5.48
2023-02-15T03:51:36.026Z,5.38
2023-02-15T03:51:50.060Z,5.35
2023-02-15T03:52:22.838Z,5.34
2023-02-15T03:52:56.129Z,5.37
2023-02-15T03:53:28.872Z,5.30
2023-02-15T03:54:11.724Z,5.29
2023-02-15T03:54:44.485Z,5.36
2023-02-15T03:55:17.459Z,5.35
2023-02-15T03:55:50.810Z,5.39
2023-02-15T03:56:23.371Z,5.37
2023-02-15T03:57:15.930Z,5.37
2023-02-15T03:58:25.393Z,5.41
2023-02-15T03:59:34.915Z,5.43
2023-02-15T04:00:33.734Z,5.45
2023-02-15T04:01:26.738Z,5.35
2023-02-15T04:02:23.059Z,5.35
2023-02-15T04:03:18.240Z,5.34
2023-02-15T04:04:20.566Z,5.28
2023-02-15T04:04:53.285Z,5.28
2023-02-15T04:05:26.127Z,5.30
2023-02-15T04:05:58.730Z,5.30
2023-02-15T04:06:31.249Z,5.27
2023-02-15T04:07:04.258Z,5.32
2023-02-15T04:07:36.818Z,5.30
2023-02-15T04:08:47.575Z,5.29
2023-02-15T04:10:02.335Z,5.27
2023-02-15T04:10:53.154Z,5.21
2023-02-15T04:11:25.786Z,5.19
2023-02-15T04:11:58.515Z,5.16
2023-02-15T04:12:31.577Z,5.16
2023-02-15T04:13:04.134Z,5.17
2023-02-15T04:13:36.728Z,5.16
2023-02-15T04:14:35.489Z,5.20
2023-02-15T04:15:45.601Z,5.28
2023-02-15T04:16:18.378Z,5.19
2023-02-15T04:16:51.057Z,5.22
2023-02-15T04:17:23.842Z,5.25
2023-02-15T04:17:56.575Z,5.27
2023-02-15T04:18:47.728Z,5.29
2023-02-15T04:19:39.087Z,5.29
2023-02-15T04:20:49.550Z,5.24
2023-02-15T04:21:41.173Z,5.29
2023-02-15T04:22:34.185Z,5.25
2023-02-15T04:23:43.901Z,5.15
2023-02-15T04:24:35.558Z,5.20
2023-02-15T04:25:14.331Z,5.22
2023-02-15T04:26:17.569Z,5.20
2023-02-15T04:26:50.277Z,5.21
2023-02-15T04:27:48.496Z,5.26
2023-02-15T04:28:03.094Z,5.21
2023-02-15T04:28:37.771Z,5.19
2023-02-15T04:28:58.435Z,5.21
2023-02-15T04:29:54.188Z,5.21
2023-02-15T04:30:27.519Z,5.15
2023-02-15T04:31:01.750Z,5.21
2023-02-15T04:32:13.957Z,5.16
2023-02-15T04:32:46.572Z,5.20
2023-02-15T04:33:21.189Z,5.24
2023-02-15T04:34:16.057Z,5.19
2023-02-15T04:34:48.737Z,5.17
2023-02-15T04:35:21.438Z,5.24
2023-02-15T04:35:54.133Z,5.32
2023-02-15T04:36:27.082Z,5.33
2023-02-15T04:37:17.956Z,5.32
2023-02-15T04:37:50.663Z,5.32
2023-02-15T04:40:09.539Z,5.41
2023-02-15T04:42:48.292Z,5.35
2023-02-15T04:43:21.057Z,5.41
2023-02-15T04:44:20.173Z,5.54
2023-02-15T04:45:54.692Z,5.40
2023-02-15T04:46:27.765Z,5.35
2023-02-15T04:47:00.343Z,5.28
2023-02-15T04:47:33.260Z,5.26
2023-02-15T04:48:05.916Z,5.33
2023-02-15T04:48:38.525Z,5.38
2023-02-15T04:49:11.241Z,5.35
2023-02-15T04:49:43.883Z,5.33
2023-02-15T04:50:16.605Z,5.36
2023-02-15T04:50:51.490Z,5.27
2023-02-15T04:51:24.079Z,5.34
2023-02-15T04:52:15.448Z,5.28
2023-02-15T04:52:48.317Z,5.30
2023-02-15T04:53:21.081Z,5.30
2023-02-15T04:54:12.372Z,5.32
2023-02-15T04:54:45.695Z,5.32
2023-02-15T04:55:18.289Z,5.32
2023-02-15T04:56:10.186Z,5.28
2023-02-15T04:57:02.272Z,5.23
2023-02-15T04:57:54.165Z,5.24
2023-02-15T04:58:26.717Z,5.27
2023-02-15T04:59:23.991Z,5.27
2023-02-15T04:59:42.851Z,5.20
2023-02-15T05:00:15.542Z,5.20
2023-02-15T05:00:48.133Z,5.15
2023-02-15T05:01:20.936Z,5.11
2023-02-15T05:01:53.505Z,5.09
2023-02-15T05:02:26.270Z,5.09
2023-02-15T05:02:58.835Z,5.07
2023-02-15T05:03:31.408Z,5.13
2023-02-15T05:04:05.819Z,5.12
2023-02-15T05:04:38.564Z,5.08
2023-02-15T05:05:13.976Z,5.15
2023-02-15T05:06:14.986Z,5.21
2023-02-15T05:07:06.332Z,5.09
2023-02-15T05:07:38.992Z,5.11
2023-02-15T05:08:11.521Z,5.12
2023-02-15T05:08:44.972Z,5.05
2023-02-15T05:09:36.370Z,5.06
2023-02-15T05:10:28.494Z,5.17
2023-02-15T05:11:20.633Z,5.11
2023-02-15T05:11:53.220Z,5.13
2023-02-15T05:12:25.802Z,5.15
2023-02-15T05:12:58.326Z,5.11
2023-02-15T05:13:11.164Z,5.04
2023-02-15T05:13:43.705Z,5.12
2023-02-15T05:14:16.293Z,5.09
2023-02-15T05:14:48.823Z,5.13
2023-02-15T05:15:21.413Z,5.16
2023-02-15T05:15:54.097Z,5.13
2023-02-15T05:16:28.680Z,5.07
2023-02-15T05:17:52.808Z,5.09
2023-02-15T05:18:25.384Z,5.14
2023-02-15T05:18:57.919Z,5.06
2023-02-15T05:19:30.509Z,5.07
2023-02-15T05:20:03.844Z,5.09
2023-02-15T05:20:36.398Z,5.08
2023-02-15T05:21:27.725Z,5.06
2023-02-15T05:22:21.054Z,5.04
2023-02-15T05:22:56.255Z,5.05
2023-02-15T05:23:28.838Z,5.02
2023-02-15T05:23:41.698Z,5.01
2023-02-15T05:24:33.576Z,5.03
2023-02-15T05:25:49.119Z,5.14
2023-02-15T05:26:41.046Z,5.08
2023-02-15T05:27:32.573Z,5.11
2023-02-15T05:28:20.388Z,5.04
2023-02-15T05:28:53.098Z,5.05
2023-02-15T05:29:25.648Z,5.01
2023-02-15T05:30:17.070Z,5.11
2023-02-15T05:31:08.976Z,5.12
2023-02-15T05:31:41.689Z,5.07
2023-02-15T05:32:14.608Z,5.03
2023-02-15T05:33:23.005Z,5.03
2023-02-15T05:33:55.553Z,5.12
2023-02-15T05:34:30.085Z,5.20
2023-02-15T05:35:02.610Z,5.16
2023-02-15T05:35:58.718Z,5.19
2023-02-15T05:36:31.455Z,5.11
2023-02-15T05:37:04.020Z,5.06
2023-02-15T05:37:36.581Z,5.12
2023-02-15T05:38:09.435Z,5.13
2023-02-15T05:38:42.229Z,5.21
2023-02-15T05:39:14.971Z,5.19
2023-02-15T05:39:47.505Z,5.14
2023-02-15T05:40:20.066Z,5.12
2023-02-15T05:40:52.917Z,5.14
2023-02-15T05:41:26.577Z,5.09
2023-02-15T05:42:01.745Z,5.02
2023-02-15T05:42:34.320Z,5.03
2023-02-15T05:43:06.922Z,4.96
2023-02-15T05:43:39.851Z,4.96
2023-02-15T05:44:12.719Z,4.96
2023-02-15T05:44:45.331Z,4.93
2023-02-15T05:45:56.820Z,4.98
2023-02-15T05:46:29.739Z,5.08
2023-02-15T05:47:40.685Z,5.03
2023-02-15T05:48:13.231Z,5.03
2023-02-15T05:49:04.484Z,4.99
2023-02-15T05:49:37.347Z,5.00
2023-02-15T05:50:10.955Z,4.97
2023-02-15T05:51:10.769Z,4.99
2023-02-15T05:52:04.093Z,4.92
2023-02-15T05:52:37.026Z,4.93
2023-02-15T05:53:09.769Z,4.94
2023-02-15T05:53:42.696Z,4.97
2023-02-15T05:54:33.809Z,4.95
2023-02-15T05:55:25.254Z,4.98
2023-02-15T05:56:01.002Z,4.99
2023-02-15T05:56:32.815Z,4.94
2023-02-15T05:57:05.600Z,4.94
2023-02-15T05:57:38.211Z,4.92
2023-02-15T05:58:10.791Z,4.88
2023-02-15T05:58:43.422Z,4.85
2023-02-15T05:59:16.094Z,4.88
2023-02-15T05:59:48.687Z,4.87
2023-02-15T06:00:21.383Z,4.89
2023-02-15T06:00:54.529Z,4.92
2023-02-15T06:01:27.073Z,4.84
2023-02-15T06:01:59.683Z,4.83
2023-02-15T06:02:50.645Z,4.89
2023-02-15T06:03:23.946Z,4.93
2023-02-15T06:03:57.049Z,4.99
2023-02-15T06:04:48.415Z,4.99
2023-02-15T06:05:41.462Z,5.02
2023-02-15T06:06:14.068Z,4.95
2023-02-15T06:07:25.361Z,4.96
2023-02-15T06:07:58.229Z,4.89
2023-02-15T06:08:49.093Z,4.86
2023-02-15T06:09:41.231Z,4.77
2023-02-15T06:10:14.141Z,4.80
2023-02-15T06:11:06.213Z,4.83
2023-02-15T06:11:57.581Z,4.88
2023-02-15T06:12:31.307Z,4.94
2023-02-15T06:13:03.913Z,4.95
2023-02-15T06:13:38.552Z,4.99
2023-02-15T06:14:27.942Z,4.96
2023-02-15T06:15:29.624Z,4.91
2023-02-15T06:16:02.441Z,4.91
2023-02-15T06:16:53.838Z,4.93
2023-02-15T06:17:52.557Z,4.96
2023-02-15T06:18:25.165Z,4.98
2023-02-15T06:19:16.966Z,4.99
2023-02-15T06:19:49.547Z,5.03
2023-02-15T06:20:21.904Z,5.00
2023-02-15T06:20:54.420Z,5.06
2023-02-15T06:21:45.549Z,5.08
2023-02-15T06:22:41.698Z,5.08
2023-02-15T06:23:14.407Z,4.98
2023-02-15T06:24:05.971Z,4.94
2023-02-15T06:25:10.864Z,5.11
2023-02-15T06:26:18.492Z,5.19
2023-02-15T06:26:51.037Z,5.28
2023-02-15T06:27:23.558Z,5.23
2023-02-15T06:27:56.128Z,5.15
2023-02-15T06:28:28.669Z,5.11
2023-02-15T06:29:01.233Z,5.09
2023-02-15T06:29:33.786Z,5.10
2023-02-15T06:30:07.806Z,5.15
2023-02-15T06:30:40.615Z,5.15
2023-02-15T06:30:57.863Z,5.29
2023-02-15T06:31:31.263Z,5.28
2023-02-15T06:32:03.894Z,5.35
2023-02-15T06:32:36.528Z,5.27
2023-02-15T06:33:31.419Z,5.32
2023-02-15T06:34:03.996Z,5.24
2023-02-15T06:34:36.521Z,5.19
2023-02-15T06:35:09.094Z,5.33
2023-02-15T06:35:42.216Z,5.37
2023-02-15T06:36:14.763Z,5.45
2023-02-15T06:37:05.586Z,5.38
2023-02-15T06:37:38.318Z,5.38
2023-02-15T06:38:10.871Z,5.38
2023-02-15T06:38:44.606Z,5.44
2023-02-15T06:39:17.412Z,5.43
2023-02-15T06:40:09.594Z,5.54
2023-02-15T06:40:42.137Z,5.46
2023-02-15T06:41:14.683Z,5.40
2023-02-15T06:42:05.533Z,5.45
2023-02-15T06:42:56.541Z,5.45
2023-02-15T06:43:29.072Z,5.33
2023-02-15T06:44:21.070Z,5.41
2023-02-15T06:45:12.293Z,5.59
2023-02-15T06:45:45.088Z,5.71
2023-02-15T06:46:17.664Z,5.68
2023-02-15T06:46:52.029Z,5.67
2023-02-15T06:47:24.558Z,5.70
2023-02-15T06:47:57.926Z,5.63
2023-02-15T06:48:30.445Z,5.67
2023-02-15T06:49:30.034Z,5.66
2023-02-15T06:50:03.084Z,5.87
2023-02-15T06:50:58.799Z,5.86
2023-02-15T06:51:31.408Z,5.81
2023-02-15T06:52:22.704Z,5.64
2023-02-15T06:53:01.013Z,5.56
2023-02-15T06:53:33.718Z,5.63
2023-02-15T06:53:46.990Z,5.54
2023-02-15T06:54:19.741Z,5.51
2023-02-15T06:54:52.468Z,5.49
2023-02-15T06:55:25.641Z,5.42
2023-02-15T06:56:16.711Z,5.42
2023-02-15T06:56:49.542Z,5.35
2023-02-15T06:57:22.105Z,5.38
2023-02-15T06:57:55.640Z,5.38
2023-02-15T06:58:28.396Z,5.43
2023-02-15T06:59:01.035Z,5.44
2023-02-15T07:00:05.953Z,5.37
2023-02-15T07:00:38.646Z,5.31
2023-02-15T07:01:29.830Z,5.38
2023-02-15T07:02:21.440Z,5.43
2023-02-15T07:02:56.162Z,5.46
2023-02-15T07:03:08.999Z,5.58
2023-02-15T07:03:41.633Z,5.58
2023-02-15T07:04:14.242Z,5.69
2023-02-15T07:04:47.086Z,5.75
2023-02-15T07:05:19.780Z,5.83
2023-02-15T07:05:59.678Z,5.67
2023-02-15T07:06:34.164Z,5.77
2023-02-15T07:07:08.950Z,5.75
2023-02-15T07:08:00.280Z,5.87
2023-02-15T07:08:51.592Z,5.86
2023-02-15T07:09:53.598Z,5.83
2023-02-15T07:10:26.633Z,5.70
2023-02-15T07:11:19.501Z,5.63
2023-02-15T07:12:27.905Z,5.73
2023-02-15T07:13:20.675Z,5.69
2023-02-15T07:13:53.867Z,5.69
2023-02-15T07:14:28.912Z,5.65
2023-02-15T07:15:19.097Z,5.61
2023-02-15T07:15:51.913Z,5.75
2023-02-15T07:16:24.910Z,5.81
2023-02-15T07:16:57.592Z,5.84
2023-02-15T07:17:35.874Z,5.74
2023-02-15T07:18:06.193Z,5.87
2023-02-15T07:18:58.931Z,5.82
2023-02-15T07:19:31.539Z,5.83
2023-02-15T07:20:52.843Z,5.83
2023-02-15T07:21:25.758Z,5.80
2023-02-15T07:21:58.678Z,5.74
2023-02-15T07:22:31.627Z,5.82
2023-02-15T07:23:05.402Z,5.83
2023-02-15T07:23:39.079Z,5.81
2023-02-15T07:24:30.934Z,5.78
2023-02-15T07:25:04.817Z,5.78
2023-02-15T07:25:37.636Z,5.77
2023-02-15T07:26:52.413Z,5.74
2023-02-15T07:27:25.036Z,5.89
2023-02-15T07:27:59.171Z,5.85
2023-02-15T07:28:33.334Z,5.86
2023-02-15T07:29:06.077Z,5.85
2023-02-15T07:29:38.820Z,5.81
2023-02-15T07:30:13.262Z,5.84
2023-02-15T07:30:46.360Z,5.81
2023-02-15T07:31:19.245Z,5.81
2023-02-15T07:32:10.593Z,5.93
2023-02-15T07:33:04.772Z,5.89
2023-02-15T07:33:35.037Z,5.89
2023-02-15T07:34:08.738Z,5.87
2023-02-15T07:35:00.556Z,5.82
2023-02-15T07:35:34.172Z,5.91
2023-02-15T07:36:07.555Z,5.84
2023-02-15T07:38:06.585Z,5.97
2023-02-15T07:39:34.369Z,5.82
2023-02-15T07:40:07.584Z,5.93
2023-02-15T07:40:40.523Z,5.86
2023-02-15T07:41:15.197Z,5.91
2023-02-15T07:41:47.963Z,5.91
2023-02-15T07:42:22.102Z,5.89
2023-02-15T07:42:56.049Z,5.94
2023-02-15T07:43:29.527Z,5.89
2023-02-15T07:44:02.730Z,5.89
2023-02-15T07:44:35.620Z,5.93
2023-02-15T07:45:08.856Z,5.97
2023-02-15T07:45:21.870Z,6.01
2023-02-15T07:45:54.781Z,6.07
2023-02-15T07:46:27.816Z,6.01
2023-02-15T07:47:00.760Z,6.05
2023-02-15T07:47:33.505Z,6.11
2023-02-15T07:48:06.672Z,6.12
2023-02-15T07:48:40.096Z,6.06
2023-02-15T07:49:12.865Z,6.14
2023-02-15T07:49:45.828Z,6.11
2023-02-15T07:50:18.596Z,6.17
2023-02-15T07:50:51.368Z,6.09
2023-02-15T07:51:24.199Z,6.09
2023-02-15T07:51:56.918Z,6.17
2023-02-15T07:53:41.470Z,6.23
2023-02-15T07:54:14.186Z,6.25
2023-02-15T07:55:06.285Z,6.34
2023-02-15T07:55:39.156Z,6.32
2023-02-15T07:56:33.486Z,6.22
2023-02-15T07:57:03.879Z,6.24
2023-02-15T07:57:36.745Z,6.12
2023-02-15T07:58:09.446Z,6.17
2023-02-15T07:58:54.971Z,6.25
2023-02-15T07:59:28.375Z,6.25
2023-02-15T08:00:01.020Z,6.31
2023-02-15T08:00:58.185Z,6.43
2023-02-15T08:01:32.668Z,6.42
2023-02-15T08:02:10.568Z,6.32
2023-02-15T08:02:43.689Z,6.30
2023-02-15T08:03:16.528Z,6.34
2023-02-15T08:03:49.215Z,6.31
2023-02-15T08:04:40.429Z,6.32
2023-02-15T08:05:13.914Z,6.34
2023-02-15T08:05:46.704Z,6.39
2023-02-15T08:06:19.614Z,6.34
2023-02-15T08:07:40.589Z,6.38
2023-02-15T08:08:31.463Z,6.60
2023-02-15T08:09:05.771Z,6.56
2023-02-15T08:09:38.527Z,6.56
2023-02-15T08:10:33.251Z,6.60
2023-02-15T08:11:40.829Z,6.55
2023-02-15T08:12:13.494Z,6.59
2023-02-15T08:12:46.447Z,6.60
2023-02-15T08:13:54.603Z,6.62
2023-02-15T08:14:51.010Z,6.66
2023-02-15T08:15:23.868Z,6.69
2023-02-15T08:15:56.747Z,6.84
2023-02-15T08:16:40.851Z,6.78
2023-02-15T08:17:32.486Z,6.90
2023-02-15T08:19:04.573Z,6.83
2023-02-15T08:19:40.618Z,6.78
2023-02-15T08:20:32.005Z,6.85
2023-02-15T08:21:05.910Z,6.88
2023-02-15T08:21:41.614Z,6.90
2023-02-15T08:22:32.897Z,6.86
2023-02-15T08:23:05.651Z,7.01
2023-02-15T08:23:38.446Z,7.07
2023-02-15T08:24:11.772Z,7.10
2023-02-15T08:24:44.656Z,7.02
2023-02-15T08:25:17.637Z,7.04
2023-02-15T08:25:52.404Z,7.05
2023-02-15T08:26:25.371Z,7.11
2023-02-15T08:27:11.125Z,7.09
2023-02-15T08:27:44.268Z,7.12
2023-02-15T08:29:07.661Z,7.24
2023-02-15T08:29:43.404Z,7.12
2023-02-15T08:30:45.629Z,7.19
2023-02-15T08:31:18.863Z,7.20
2023-02-15T08:31:55.769Z,7.15
2023-02-15T08:32:28.517Z,7.22
2023-02-15T08:33:01.295Z,7.28
2023-02-15T08:33:34.729Z,7.38
2023-02-15T08:34:07.780Z,7.42
2023-02-15T08:34:41.810Z,7.40
2023-02-15T08:35:15.026Z,7.46
2023-02-15T08:35:48.017Z,7.49
2023-02-15T08:36:40.033Z,7.58
2023-02-15T08:37:31.028Z,7.65
2023-02-15T08:38:22.595Z,7.60
2023-02-15T08:39:14.360Z,7.64
2023-02-15T08:40:06.398Z,7.76
2023-02-15T08:41:09.616Z,7.79
2023-02-15T08:41:45.931Z,7.85
2023-02-15T08:42:18.703Z,7.92
2023-02-15T08:42:51.457Z,7.96
2023-02-15T08:43:24.278Z,7.95
2023-02-15T08:43:58.416Z,7.93
2023-02-15T08:44:51.555Z,7.94
2023-02-15T08:45:26.470Z,8.00
2023-02-15T08:45:59.184Z,8.10
2023-02-15T08:46:34.063Z,8.17
2023-02-15T08:47:06.763Z,8.08
2023-02-15T08:47:39.492Z,8.11
2023-02-15T08:48:12.330Z,8.08
2023-02-15T08:49:03.420Z,8.05
2023-02-15T08:49:36.158Z,8.19
2023-02-15T08:50:09.266Z,8.44
2023-02-15T08:50:42.038Z,8.41
2023-02-15T08:51:37.425Z,8.44
2023-02-15T08:52:10.152Z,8.34
2023-02-15T08:52:42.908Z,8.36
2023-02-15T08:53:34.111Z,8.40
2023-02-15T08:54:11.520Z,8.32
2023-02-15T08:54:44.537Z,8.34
2023-02-15T08:55:19.469Z,8.35
2023-02-15T08:55:58.640Z,8.41
2023-02-15T08:56:34.463Z,8.45
2023-02-15T08:57:08.026Z,8.42
2023-02-15T08:57:45.848Z,8.32
2023-02-15T08:58:18.564Z,8.46
2023-02-15T08:58:51.318Z,8.46
2023-02-15T08:59:24.448Z,8.52
2023-02-15T08:59:59.211Z,8.46
2023-02-15T09:00:32.301Z,8.44
2023-02-15T09:01:18.887Z,8.47
2023-02-15T09:01:52.547Z,8.49
2023-02-15T09:02:25.437Z,8.49
2023-02-15T09:02:58.145Z,8.55
2023-02-15T09:03:32.509Z,8.55
2023-02-15T09:04:09.592Z,8.62
2023-02-15T09:04:42.455Z,8.55
2023-02-15T09:05:16.727Z,8.60
2023-02-15T09:05:49.567Z,8.58
2023-02-15T09:06:23.191Z,8.52
2023-02-15T09:06:56.254Z,8.59
2023-02-15T09:07:29.491Z,8.64
2023-02-15T09:08:02.351Z,8.67
2023-02-15T09:08:35.146Z,8.71
2023-02-15T09:09:08.550Z,8.68
2023-02-15T09:09:41.292Z,8.67
2023-02-15T09:10:14.041Z,8.64
2023-02-15T09:11:17.715Z,8.70
2023-02-15T09:11:56.837Z,8.75
2023-02-15T09:12:24.310Z,8.77
2023-02-15T09:12:57.034Z,8.85
2023-02-15T09:13:29.791Z,8.81
2023-02-15T09:14:21.958Z,8.82
2023-02-15T09:14:54.703Z,8.82
2023-02-15T09:15:27.811Z,8.78
2023-02-15T09:16:04.170Z,8.91
2023-02-15T09:16:37.932Z,8.86
2023-02-15T09:17:10.624Z,8.82
2023-02-15T09:17:43.489Z,8.82
2023-02-15T09:18:18.107Z,8.86
2023-02-15T09:18:51.431Z,8.99
2023-02-15T09:19:26.258Z,9.02
2023-02-15T09:19:58.974Z,9.03
2023-02-15T09:20:50.612Z,9.03
2023-02-15T09:21:24.984Z,8.89
2023-02-15T09:21:59.132Z,8.88
2023-02-15T09:22:32.250Z,8.90
2023-02-15T09:23:27.391Z,8.93
2023-02-15T09:24:16.658Z,9.11
2023-02-15T09:24:49.408Z,9.18
2023-02-15T09:25:22.234Z,9.22
2023-02-15T09:25:54.972Z,9.22
2023-02-15T09:26:29.267Z,9.24
2023-02-15T09:27:02.064Z,9.29
2023-02-15T09:27:34.798Z,9.23
2023-02-15T09:28:07.545Z,9.25
2023-02-15T09:28:40.556Z,9.23
2023-02-15T09:29:13.735Z,9.25
2023-02-15T09:29:46.474Z,9.26
2023-02-15T09:30:38.017Z,9.27
2023-02-15T09:31:31.227Z,9.09
2023-02-15T09:31:54.710Z,9.19
2023-02-15T09:32:47.137Z,9.20
2023-02-15T09:33:19.883Z,9.26
2023-02-15T09:33:52.695Z,9.29
2023-02-15T09:34:25.522Z,9.29
2023-02-15T09:34:58.254Z,9.29
2023-02-15T09:35:31.008Z,9.28
2023-02-15T09:36:05.140Z,9.28
2023-02-15T09:36:39.147Z,9.36
2023-02-15T09:37:11.995Z,9.42
2023-02-15T09:38:04.287Z,9.44
2023-02-15T09:38:37.618Z,9.39
2023-02-15T09:39:13.938Z,9.29
2023-02-15T09:39:48.840Z,9.32